Arapahoe, North Carolina
Current Conditions -  °F | °C
As of 12:54 PM on Monday 24 Nov 2014 (Local Time) from KNKT Reporting Station
Haze Haze  
Wind Chill: 71°   Ceiling: 600
Heat Index: 71°   Visibility: 2mi
Dew Point: 68°   Wind: 8mph
Humidity: 90%   Direction: 200°SSW
Pressure: 29.87"   Gusts: NA
Location:  35.03°N, 76.83°W
Report Text: KNKT 241754Z 20007KT 2SM BR BKN006 BKN012 OVC033 22/20 A2987 RMK AO2 SFC VIS 6 RAB31E48 SLP110 P0001 6//// T02170200 10233 20194 58017 $
Loading
Personal Weather Stations






























Interactive Weather Map New forecast layout! Learn more

10-Day Weather Forecast

Advertisements
Track Severe Weather on mobile